sensor_id;sensor_type;location;lat;lon;timestamp;P1;durP1;ratioP1;P2;durP2;ratioP2
9948;SDS011;5013;51.840;8.276;2023-06-10T00:01:46;7.57;;;6.90;;
9948;SDS011;5013;51.840;8.276;2023-06-10T00:04:12;10.50;;;7.67;;
9948;SDS011;5013;51.840;8.276;2023-06-10T00:06:44;8.00;;;7.23;;
9948;SDS011;5013;51.840;8.276;2023-06-10T00:09:09;7.37;;;6.77;;
9948;SDS011;5013;51.840;8.276;2023-06-10T00:11:35;7.97;;;7.17;;
9948;SDS011;5013;51.840;8.276;2023-06-10T00:14:02;7.53;;;6.77;;
9948;SDS011;5013;51.840;8.276;2023-06-10T00:16:28;8.07;;;6.87;;
9948;SDS011;5013;51.840;8.276;2023-06-10T00:18:54;7.40;;;6.80;;
9948;SDS011;5013;51.840;8.276;2023-06-10T00:21:26;7.80;;;7.20;;
9948;SDS011;5013;51.840;8.276;2023-06-10T00:23:52;7.33;;;6.70;;
9948;SDS011;5013;51.840;8.276;2023-06-10T00:26:20;8.67;;;7.03;;
9948;SDS011;5013;51.840;8.276;2023-06-10T00:28:46;7.57;;;6.97;;
9948;SDS011;5013;51.840;8.276;2023-06-10T00:31:12;9.17;;;7.53;;
9948;SDS011;5013;51.840;8.276;2023-06-10T00:33:37;7.97;;;7.33;;
9948;SDS011;5013;51.840;8.276;2023-06-10T00:36:03;10.43;;;7.40;;
9948;SDS011;5013;51.840;8.276;2023-06-10T00:38:28;8.07;;;7.23;;
9948;SDS011;5013;51.840;8.276;2023-06-10T00:40:56;7.37;;;6.67;;
9948;SDS011;5013;51.840;8.276;2023-06-10T00:43:22;8.60;;;7.70;;
9948;SDS011;5013;51.840;8.276;2023-06-10T00:45:48;8.13;;;7.33;;
9948;SDS011;5013;51.840;8.276;2023-06-10T00:48:14;10.13;;;6.80;;
9948;SDS011;5013;51.840;8.276;2023-06-10T00:50:39;11.80;;;7.63;;
9948;SDS011;5013;51.840;8.276;2023-06-10T00:53:05;7.60;;;6.70;;
9948;SDS011;5013;51.840;8.276;2023-06-10T00:55:31;9.93;;;7.40;;
9948;SDS011;5013;51.840;8.276;2023-06-10T00:57:57;7.57;;;6.97;;
9948;SDS011;5013;51.840;8.276;2023-06-10T01:00:23;8.20;;;7.40;;
9948;SDS011;5013;51.840;8.276;2023-06-10T01:02:49;8.43;;;7.67;;
9948;SDS011;5013;51.840;8.276;2023-06-10T01:05:17;8.00;;;7.30;;
9948;SDS011;5013;51.840;8.276;2023-06-10T01:07:47;8.10;;;7.13;;
9948;SDS011;5013;51.840;8.276;2023-06-10T01:13:07;9.90;;;7.70;;
9948;SDS011;5013;51.840;8.276;2023-06-10T01:15:36;7.87;;;7.17;;
9948;SDS011;5013;51.840;8.276;2023-06-10T01:20:40;8.57;;;7.77;;
9948;SDS011;5013;51.840;8.276;2023-06-10T01:23:08;8.30;;;7.60;;
9948;SDS011;5013;51.840;8.276;2023-06-10T01:25:36;8.90;;;7.97;;
9948;SDS011;5013;51.840;8.276;2023-06-10T01:33:37;9.13;;;8.23;;
9948;SDS011;5013;51.840;8.276;2023-06-10T01:36:06;8.77;;;7.90;;
9948;SDS011;5013;51.840;8.276;2023-06-10T01:38:34;11.03;;;8.33;;
9948;SDS011;5013;51.840;8.276;2023-06-10T01:41:04;8.43;;;7.63;;
9948;SDS011;5013;51.840;8.276;2023-06-10T01:43:33;8.63;;;7.73;;
9948;SDS011;5013;51.840;8.276;2023-06-10T01:45:59;8.77;;;7.80;;
9948;SDS011;5013;51.840;8.276;2023-06-10T01:48:25;8.13;;;7.40;;
9948;SDS011;5013;51.840;8.276;2023-06-10T01:50:51;9.63;;;7.73;;
9948;SDS011;5013;51.840;8.276;2023-06-10T01:53:17;8.10;;;7.40;;
9948;SDS011;5013;51.840;8.276;2023-06-10T01:55:42;8.37;;;7.63;;
9948;SDS011;5013;51.840;8.276;2023-06-10T01:58:08;8.20;;;7.13;;
9948;SDS011;5013;51.840;8.276;2023-06-10T02:00:33;8.93;;;7.70;;
9948;SDS011;5013;51.840;8.276;2023-06-10T02:02:59;11.97;;;8.37;;
9948;SDS011;5013;51.840;8.276;2023-06-10T02:05:25;8.63;;;7.73;;
9948;SDS011;5013;51.840;8.276;2023-06-10T02:07:53;8.50;;;7.73;;
9948;SDS011;5013;51.840;8.276;2023-06-10T02:10:18;8.23;;;7.53;;
9948;SDS011;5013;51.840;8.276;2023-06-10T02:12:44;8.70;;;8.00;;
9948;SDS011;5013;51.840;8.276;2023-06-10T02:15:09;7.40;;;6.80;;
9948;SDS011;5013;51.840;8.276;2023-06-10T02:17:35;10.40;;;7.40;;
9948;SDS011;5013;51.840;8.276;2023-06-10T02:20:01;8.13;;;7.33;;
9948;SDS011;5013;51.840;8.276;2023-06-10T02:22:29;9.67;;;7.17;;
9948;SDS011;5013;51.840;8.276;2023-06-10T02:24:54;8.27;;;7.47;;
9948;SDS011;5013;51.840;8.276;2023-06-10T02:27:20;8.07;;;7.37;;
9948;SDS011;5013;51.840;8.276;2023-06-10T02:29:46;8.20;;;7.50;;
9948;SDS011;5013;51.840;8.276;2023-06-10T02:32:11;7.97;;;7.37;;
9948;SDS011;5013;51.840;8.276;2023-06-10T02:34:40;7.70;;;7.00;;
9948;SDS011;5013;51.840;8.276;2023-06-10T02:37:07;11.33;;;7.27;;
9948;SDS011;5013;51.840;8.276;2023-06-10T02:39:33;8.60;;;7.70;;
9948;SDS011;5013;51.840;8.276;2023-06-10T02:41:58;8.73;;;7.43;;
9948;SDS011;5013;51.840;8.276;2023-06-10T02:44:24;7.80;;;7.10;;
9948;SDS011;5013;51.840;8.276;2023-06-10T02:46:50;8.47;;;7.57;;
9948;SDS011;5013;51.840;8.276;2023-06-10T02:49:15;11.40;;;7.63;;
9948;SDS011;5013;51.840;8.276;2023-06-10T02:51:41;8.23;;;7.40;;
9948;SDS011;5013;51.840;8.276;2023-06-10T02:54:06;7.93;;;7.13;;
9948;SDS011;5013;51.840;8.276;2023-06-10T02:56:32;10.20;;;7.60;;
9948;SDS011;5013;51.840;8.276;2023-06-10T02:58:58;8.50;;;7.23;;
9948;SDS011;5013;51.840;8.276;2023-06-10T03:01:24;9.03;;;6.77;;
9948;SDS011;5013;51.840;8.276;2023-06-10T03:03:50;9.40;;;7.90;;
9948;SDS011;5013;51.840;8.276;2023-06-10T03:06:16;9.63;;;7.20;;
9948;SDS011;5013;51.840;8.276;2023-06-10T03:08:42;8.37;;;7.63;;
9948;SDS011;5013;51.840;8.276;2023-06-10T03:11:08;6.87;;;6.37;;
9948;SDS011;5013;51.840;8.276;2023-06-10T03:13:34;10.67;;;7.23;;
9948;SDS011;5013;51.840;8.276;2023-06-10T03:15:59;7.73;;;6.50;;
9948;SDS011;5013;51.840;8.276;2023-06-10T03:18:25;7.57;;;6.60;;
9948;SDS011;5013;51.840;8.276;2023-06-10T03:20:54;8.63;;;7.03;;
9948;SDS011;5013;51.840;8.276;2023-06-10T03:23:20;8.13;;;6.70;;
9948;SDS011;5013;51.840;8.276;2023-06-10T03:25:46;7.60;;;6.47;;
9948;SDS011;5013;51.840;8.276;2023-06-10T03:28:12;7.10;;;6.07;;
9948;SDS011;5013;51.840;8.276;2023-06-10T03:30:37;7.70;;;6.90;;
9948;SDS011;5013;51.840;8.276;2023-06-10T03:33:03;21.80;;;6.53;;
9948;SDS011;5013;51.840;8.276;2023-06-10T03:35:29;8.87;;;6.90;;
9948;SDS011;5013;51.840;8.276;2023-06-10T03:37:54;11.87;;;7.17;;
9948;SDS011;5013;51.840;8.276;2023-06-10T03:40:20;6.70;;;6.00;;
9948;SDS011;5013;51.840;8.276;2023-06-10T03:42:46;6.30;;;5.70;;
9948;SDS011;5013;51.840;8.276;2023-06-10T03:45:11;7.77;;;5.60;;
9948;SDS011;5013;51.840;8.276;2023-06-10T03:47:37;7.13;;;5.37;;
9948;SDS011;5013;51.840;8.276;2023-06-10T03:50:05;6.73;;;5.80;;
9948;SDS011;5013;51.840;8.276;2023-06-10T03:52:33;6.87;;;5.10;;
9948;SDS011;5013;51.840;8.276;2023-06-10T03:54:59;5.60;;;5.10;;
9948;SDS011;5013;51.840;8.276;2023-06-10T03:57:24;5.70;;;5.20;;
9948;SDS011;5013;51.840;8.276;2023-06-10T03:59:50;9.87;;;5.57;;
9948;SDS011;5013;51.840;8.276;2023-06-10T04:02:16;5.80;;;5.30;;
9948;SDS011;5013;51.840;8.276;2023-06-10T04:04:42;5.87;;;5.30;;
9948;SDS011;5013;51.840;8.276;2023-06-10T04:07:08;7.77;;;5.33;;
9948;SDS011;5013;51.840;8.276;2023-06-10T04:09:34;6.07;;;5.33;;
9948;SDS011;5013;51.840;8.276;2023-06-10T04:12:00;6.60;;;5.20;;
9948;SDS011;5013;51.840;8.276;2023-06-10T04:14:26;5.77;;;5.20;;
9948;SDS011;5013;51.840;8.276;2023-06-10T04:16:52;6.80;;;4.93;;
9948;SDS011;5013;51.840;8.276;2023-06-10T04:19:18;5.67;;;5.17;;
9948;SDS011;5013;51.840;8.276;2023-06-10T04:21:43;5.40;;;4.93;;
9948;SDS011;5013;51.840;8.276;2023-06-10T04:24:09;8.03;;;4.90;;
9948;SDS011;5013;51.840;8.276;2023-06-10T04:26:35;5.50;;;4.73;;
9948;SDS011;5013;51.840;8.276;2023-06-10T04:29:01;5.10;;;4.70;;
9948;SDS011;5013;51.840;8.276;2023-06-10T04:31:26;9.63;;;5.10;;
9948;SDS011;5013;51.840;8.276;2023-06-10T04:33:52;4.90;;;4.50;;
9948;SDS011;5013;51.840;8.276;2023-06-10T04:36:18;5.40;;;4.87;;
9948;SDS011;5013;51.840;8.276;2023-06-10T04:38:44;6.80;;;5.40;;
9948;SDS011;5013;51.840;8.276;2023-06-10T04:41:09;7.00;;;5.20;;
9948;SDS011;5013;51.840;8.276;2023-06-10T04:43:35;5.93;;;4.87;;
9948;SDS011;5013;51.840;8.276;2023-06-10T04:46:00;5.43;;;4.93;;
9948;SDS011;5013;51.840;8.276;2023-06-10T04:48:26;6.57;;;5.03;;
9948;SDS011;5013;51.840;8.276;2023-06-10T04:50:52;5.27;;;4.73;;
9948;SDS011;5013;51.840;8.276;2023-06-10T04:53:18;8.17;;;5.23;;
9948;SDS011;5013;51.840;8.276;2023-06-10T04:55:43;5.23;;;4.80;;
9948;SDS011;5013;51.840;8.276;2023-06-10T04:58:09;6.03;;;4.70;;
9948;SDS011;5013;51.840;8.276;2023-06-10T05:00:34;8.00;;;5.47;;
9948;SDS011;5013;51.840;8.276;2023-06-10T05:03:00;4.87;;;4.47;;
9948;SDS011;5013;51.840;8.276;2023-06-10T05:05:25;6.67;;;4.70;;
9948;SDS011;5013;51.840;8.276;2023-06-10T05:07:51;6.95;;;4.70;;
9948;SDS011;5013;51.840;8.276;2023-06-10T05:10:17;4.70;;;4.30;;
9948;SDS011;5013;51.840;8.276;2023-06-10T05:12:42;5.30;;;4.78;;
9948;SDS011;5013;51.840;8.276;2023-06-10T05:15:08;7.90;;;4.25;;
9948;SDS011;5013;51.840;8.276;2023-06-10T05:17:34;8.00;;;4.40;;
9948;SDS011;5013;51.840;8.276;2023-06-10T05:20:00;6.07;;;4.72;;
9948;SDS011;5013;51.840;8.276;2023-06-10T05:22:27;7.10;;;4.60;;
9948;SDS011;5013;51.840;8.276;2023-06-10T05:24:52;7.82;;;4.50;;
9948;SDS011;5013;51.840;8.276;2023-06-10T05:27:18;8.43;;;4.47;;
9948;SDS011;5013;51.840;8.276;2023-06-10T05:29:44;6.82;;;4.53;;
9948;SDS011;5013;51.840;8.276;2023-06-10T05:32:10;7.82;;;4.90;;
9948;SDS011;5013;51.840;8.276;2023-06-10T05:34:36;6.95;;;4.60;;
9948;SDS011;5013;51.840;8.276;2023-06-10T05:37:02;4.93;;;4.45;;
9948;SDS011;5013;51.840;8.276;2023-06-10T05:39:28;5.65;;;4.75;;
9948;SDS011;5013;51.840;8.276;2023-06-10T05:41:53;5.70;;;4.53;;
9948;SDS011;5013;51.840;8.276;2023-06-10T05:44:19;6.80;;;4.57;;
9948;SDS011;5013;51.840;8.276;2023-06-10T05:46:44;6.55;;;4.28;;
9948;SDS011;5013;51.840;8.276;2023-06-10T05:49:10;7.28;;;4.43;;
9948;SDS011;5013;51.840;8.276;2023-06-10T05:51:36;4.78;;;4.30;;
9948;SDS011;5013;51.840;8.276;2023-06-10T05:54:02;4.85;;;4.32;;
9948;SDS011;5013;51.840;8.276;2023-06-10T05:56:28;6.82;;;4.45;;
9948;SDS011;5013;51.840;8.276;2023-06-10T05:58:53;5.28;;;4.45;;
9948;SDS011;5013;51.840;8.276;2023-06-10T06:01:19;7.85;;;4.80;;
9948;SDS011;5013;51.840;8.276;2023-06-10T06:03:45;6.50;;;4.10;;
9948;SDS011;5013;51.840;8.276;2023-06-10T06:06:10;5.97;;;4.38;;
9948;SDS011;5013;51.840;8.276;2023-06-10T06:08:36;7.30;;;4.95;;
9948;SDS011;5013;51.840;8.276;2023-06-10T06:11:01;8.15;;;4.55;;
9948;SDS011;5013;51.840;8.276;2023-06-10T06:13:27;9.65;;;4.50;;
9948;SDS011;5013;51.840;8.276;2023-06-10T06:15:53;5.55;;;4.13;;
9948;SDS011;5013;51.840;8.276;2023-06-10T06:18:18;6.10;;;4.38;;
9948;SDS011;5013;51.840;8.276;2023-06-10T06:20:44;6.03;;;4.30;;
9948;SDS011;5013;51.840;8.276;2023-06-10T06:23:10;5.63;;;4.00;;
9948;SDS011;5013;51.840;8.276;2023-06-10T06:25:35;5.95;;;4.22;;
9948;SDS011;5013;51.840;8.276;2023-06-10T06:28:02;8.88;;;4.80;;
9948;SDS011;5013;51.840;8.276;2023-06-10T06:30:27;4.78;;;4.35;;
9948;SDS011;5013;51.840;8.276;2023-06-10T06:32:53;4.22;;;3.92;;
9948;SDS011;5013;51.840;8.276;2023-06-10T06:35:18;5.30;;;4.30;;
9948;SDS011;5013;51.840;8.276;2023-06-10T06:37:44;4.80;;;4.35;;
9948;SDS011;5013;51.840;8.276;2023-06-10T06:40:10;4.53;;;4.13;;
9948;SDS011;5013;51.840;8.276;2023-06-10T06:42:38;7.25;;;4.10;;
9948;SDS011;5013;51.840;8.276;2023-06-10T06:45:04;5.65;;;4.13;;
9948;SDS011;5013;51.840;8.276;2023-06-10T06:47:30;6.45;;;3.70;;
9948;SDS011;5013;51.840;8.276;2023-06-10T06:49:56;4.80;;;4.20;;
9948;SDS011;5013;51.840;8.276;2023-06-10T06:52:21;5.80;;;4.63;;
9948;SDS011;5013;51.840;8.276;2023-06-10T06:54:47;5.43;;;4.00;;
9948;SDS011;5013;51.840;8.276;2023-06-10T06:57:13;5.25;;;4.45;;
9948;SDS011;5013;51.840;8.276;2023-06-10T06:59:38;4.07;;;3.67;;
9948;SDS011;5013;51.840;8.276;2023-06-10T07:02:04;4.32;;;3.80;;
9948;SDS011;5013;51.840;8.276;2023-06-10T07:04:30;4.35;;;3.95;;
9948;SDS011;5013;51.840;8.276;2023-06-10T07:06:56;5.35;;;3.78;;
9948;SDS011;5013;51.840;8.276;2023-06-10T07:09:22;6.88;;;4.05;;
9948;SDS011;5013;51.840;8.276;2023-06-10T07:11:47;4.18;;;3.90;;
9948;SDS011;5013;51.840;8.276;2023-06-10T07:14:13;4.13;;;3.83;;
9948;SDS011;5013;51.840;8.276;2023-06-10T07:16:38;4.53;;;4.13;;
9948;SDS011;5013;51.840;8.276;2023-06-10T07:19:04;4.57;;;4.18;;
9948;SDS011;5013;51.840;8.276;2023-06-10T07:21:30;5.88;;;4.20;;
9948;SDS011;5013;51.840;8.276;2023-06-10T07:23:55;4.53;;;4.00;;
9948;SDS011;5013;51.840;8.276;2023-06-10T07:26:24;4.00;;;3.70;;
9948;SDS011;5013;51.840;8.276;2023-06-10T07:28:50;7.20;;;4.20;;
9948;SDS011;5013;51.840;8.276;2023-06-10T07:31:16;5.45;;;4.10;;
9948;SDS011;5013;51.840;8.276;2023-06-10T07:33:42;4.00;;;3.50;;
9948;SDS011;5013;51.840;8.276;2023-06-10T07:36:08;4.75;;;4.25;;
9948;SDS011;5013;51.840;8.276;2023-06-10T07:38:34;5.65;;;3.88;;
9948;SDS011;5013;51.840;8.276;2023-06-10T07:41:00;4.68;;;4.18;;
9948;SDS011;5013;51.840;8.276;2023-06-10T07:43:26;4.60;;;3.75;;
9948;SDS011;5013;51.840;8.276;2023-06-10T07:45:51;4.32;;;3.92;;
9948;SDS011;5013;51.840;8.276;2023-06-10T07:48:17;5.78;;;4.35;;
9948;SDS011;5013;51.840;8.276;2023-06-10T07:50:43;7.80;;;4.05;;
9948;SDS011;5013;51.840;8.276;2023-06-10T07:53:08;4.75;;;4.35;;
9948;SDS011;5013;51.840;8.276;2023-06-10T07:55:34;4.75;;;4.18;;
9948;SDS011;5013;51.840;8.276;2023-06-10T07:58:00;5.65;;;4.18;;
9948;SDS011;5013;51.840;8.276;2023-06-10T08:00:25;4.35;;;4.05;;
9948;SDS011;5013;51.840;8.276;2023-06-10T08:02:51;6.40;;;4.25;;
9948;SDS011;5013;51.840;8.276;2023-06-10T08:05:17;4.43;;;4.10;;
9948;SDS011;5013;51.840;8.276;2023-06-10T08:07:42;9.13;;;4.10;;
9948;SDS011;5013;51.840;8.276;2023-06-10T08:10:08;5.53;;;4.07;;
9948;SDS011;5013;51.840;8.276;2023-06-10T08:12:34;6.57;;;3.90;;
9948;SDS011;5013;51.840;8.276;2023-06-10T08:15:01;3.67;;;3.40;;
9948;SDS011;5013;51.840;8.276;2023-06-10T08:17:29;5.72;;;4.00;;
9948;SDS011;5013;51.840;8.276;2023-06-10T08:19:55;4.40;;;4.00;;
9948;SDS011;5013;51.840;8.276;2023-06-10T08:22:21;5.85;;;3.65;;
9948;SDS011;5013;51.840;8.276;2023-06-10T08:24:46;4.43;;;4.07;;
9948;SDS011;5013;51.840;8.276;2023-06-10T08:27:12;4.28;;;3.70;;
9948;SDS011;5013;51.840;8.276;2023-06-10T08:29:38;5.45;;;4.40;;
9948;SDS011;5013;51.840;8.276;2023-06-10T08:32:04;4.78;;;4.22;;
9948;SDS011;5013;51.840;8.276;2023-06-10T08:34:33;4.15;;;3.50;;
9948;SDS011;5013;51.840;8.276;2023-06-10T08:37:00;4.07;;;3.78;;
9948;SDS011;5013;51.840;8.276;2023-06-10T08:39:25;4.35;;;3.95;;
9948;SDS011;5013;51.840;8.276;2023-06-10T08:41:56;7.38;;;5.05;;
9948;SDS011;5013;51.840;8.276;2023-06-10T08:44:28;8.07;;;4.53;;
9948;SDS011;5013;51.840;8.276;2023-06-10T08:47:01;6.28;;;3.95;;
9948;SDS011;5013;51.840;8.276;2023-06-10T08:49:38;5.25;;;4.18;;
9948;SDS011;5013;51.840;8.276;2023-06-10T08:52:06;6.05;;;4.32;;
9948;SDS011;5013;51.840;8.276;2023-06-10T08:54:33;6.03;;;4.20;;
9948;SDS011;5013;51.840;8.276;2023-06-10T08:57:02;6.78;;;4.03;;
9948;SDS011;5013;51.840;8.276;2023-06-10T08:59:30;5.28;;;4.03;;
9948;SDS011;5013;51.840;8.276;2023-06-10T09:01:56;10.70;;;5.00;;
9948;SDS011;5013;51.840;8.276;2023-06-10T09:04:23;21.40;;;5.13;;
9948;SDS011;5013;51.840;8.276;2023-06-10T09:06:49;5.85;;;4.10;;
9948;SDS011;5013;51.840;8.276;2023-06-10T09:09:15;4.32;;;4.00;;
9948;SDS011;5013;51.840;8.276;2023-06-10T09:11:42;6.50;;;3.58;;
9948;SDS011;5013;51.840;8.276;2023-06-10T09:14:09;4.20;;;3.80;;
9948;SDS011;5013;51.840;8.276;2023-06-10T09:16:34;3.72;;;3.53;;
9948;SDS011;5013;51.840;8.276;2023-06-10T09:19:00;3.90;;;3.60;;
9948;SDS011;5013;51.840;8.276;2023-06-10T09:21:32;4.32;;;3.92;;
9948;SDS011;5013;51.840;8.276;2023-06-10T09:23:58;4.22;;;3.80;;
9948;SDS011;5013;51.840;8.276;2023-06-10T09:26:27;6.97;;;3.58;;
9948;SDS011;5013;51.840;8.276;2023-06-10T09:28:57;4.45;;;4.07;;
9948;SDS011;5013;51.840;8.276;2023-06-10T09:31:29;4.82;;;4.00;;
9948;SDS011;5013;51.840;8.276;2023-06-10T09:33:55;4.50;;;4.10;;
9948;SDS011;5013;51.840;8.276;2023-06-10T09:36:34;30.75;;;7.20;;
9948;SDS011;5013;51.840;8.276;2023-06-10T09:39:01;9.48;;;4.93;;
9948;SDS011;5013;51.840;8.276;2023-06-10T09:41:34;5.43;;;4.43;;
9948;SDS011;5013;51.840;8.276;2023-06-10T09:44:01;5.45;;;4.05;;
9948;SDS011;5013;51.840;8.276;2023-06-10T09:46:31;8.05;;;4.13;;
9948;SDS011;5013;51.840;8.276;2023-06-10T09:48:59;12.95;;;4.50;;
9948;SDS011;5013;51.840;8.276;2023-06-10T09:51:25;8.65;;;4.72;;
9948;SDS011;5013;51.840;8.276;2023-06-10T09:53:51;4.95;;;4.00;;
9948;SDS011;5013;51.840;8.276;2023-06-10T09:56:17;4.35;;;4.03;;
9948;SDS011;5013;51.840;8.276;2023-06-10T09:58:44;8.38;;;4.72;;
9948;SDS011;5013;51.840;8.276;2023-06-10T10:01:11;6.00;;;4.43;;
9948;SDS011;5013;51.840;8.276;2023-06-10T10:03:45;5.85;;;4.40;;
9948;SDS011;5013;51.840;8.276;2023-06-10T10:06:13;9.05;;;4.63;;
9948;SDS011;5013;51.840;8.276;2023-06-10T10:08:39;4.63;;;4.32;;
9948;SDS011;5013;51.840;8.276;2023-06-10T10:11:05;6.13;;;4.45;;
9948;SDS011;5013;51.840;8.276;2023-06-10T10:13:32;4.97;;;4.45;;
9948;SDS011;5013;51.840;8.276;2023-06-10T10:15:59;5.03;;;4.50;;
9948;SDS011;5013;51.840;8.276;2023-06-10T10:18:29;5.20;;;4.70;;
9948;SDS011;5013;51.840;8.276;2023-06-10T10:20:57;7.53;;;4.43;;
9948;SDS011;5013;51.840;8.276;2023-06-10T10:23:50;7.25;;;4.68;;
9948;SDS011;5013;51.840;8.276;2023-06-10T10:26:25;8.23;;;4.65;;
9948;SDS011;5013;51.840;8.276;2023-06-10T10:28:53;6.80;;;4.60;;
9948;SDS011;5013;51.840;8.276;2023-06-10T10:31:27;4.65;;;4.35;;
9948;SDS011;5013;51.840;8.276;2023-06-10T10:33:57;5.15;;;4.65;;
9948;SDS011;5013;51.840;8.276;2023-06-10T10:36:25;5.72;;;5.10;;
9948;SDS011;5013;51.840;8.276;2023-06-10T10:38:51;5.95;;;4.80;;
9948;SDS011;5013;51.840;8.276;2023-06-10T10:41:17;5.18;;;4.53;;
9948;SDS011;5013;51.840;8.276;2023-06-10T10:43:44;4.80;;;4.50;;
9948;SDS011;5013;51.840;8.276;2023-06-10T10:46:12;5.18;;;4.75;;
9948;SDS011;5013;51.840;8.276;2023-06-10T10:48:39;4.85;;;4.55;;
9948;SDS011;5013;51.840;8.276;2023-06-10T10:51:08;5.43;;;4.93;;
9948;SDS011;5013;51.840;8.276;2023-06-10T10:53:36;6.10;;;4.70;;
9948;SDS011;5013;51.840;8.276;2023-06-10T10:58:37;5.32;;;4.80;;
9948;SDS011;5013;51.840;8.276;2023-06-10T11:01:10;5.35;;;4.90;;
9948;SDS011;5013;51.840;8.276;2023-06-10T11:03:41;5.68;;;4.60;;
9948;SDS011;5013;51.840;8.276;2023-06-10T11:06:13;10.10;;;5.25;;
9948;SDS011;5013;51.840;8.276;2023-06-10T11:16:29;8.00;;;5.22;;
9948;SDS011;5013;51.840;8.276;2023-06-10T11:18:55;5.00;;;4.57;;
9948;SDS011;5013;51.840;8.276;2023-06-10T11:21:22;7.35;;;4.80;;
9948;SDS011;5013;51.840;8.276;2023-06-10T11:23:51;5.25;;;4.95;;
9948;SDS011;5013;51.840;8.276;2023-06-10T11:26:17;8.30;;;5.47;;
9948;SDS011;5013;51.840;8.276;2023-06-10T11:31:24;5.28;;;4.85;;
9948;SDS011;5013;51.840;8.276;2023-06-10T11:33:54;6.00;;;5.40;;
9948;SDS011;5013;51.840;8.276;2023-06-10T11:36:40;6.30;;;4.90;;
9948;SDS011;5013;51.840;8.276;2023-06-10T11:39:07;6.97;;;5.10;;
9948;SDS011;5013;51.840;8.276;2023-06-10T11:41:34;6.57;;;4.90;;
9948;SDS011;5013;51.840;8.276;2023-06-10T11:44:20;9.65;;;4.93;;
9948;SDS011;5013;51.840;8.276;2023-06-10T11:46:47;5.75;;;4.90;;
9948;SDS011;5013;51.840;8.276;2023-06-10T11:49:14;5.57;;;4.90;;
9948;SDS011;5013;51.840;8.276;2023-06-10T11:51:40;7.65;;;5.07;;
9948;SDS011;5013;51.840;8.276;2023-06-10T11:54:10;5.88;;;5.00;;
9948;SDS011;5013;51.840;8.276;2023-06-10T11:56:35;6.13;;;5.25;;
9948;SDS011;5013;51.840;8.276;2023-06-10T11:59:05;5.78;;;5.38;;
9948;SDS011;5013;51.840;8.276;2023-06-10T12:01:35;5.80;;;5.30;;
9948;SDS011;5013;51.840;8.276;2023-06-10T12:04:08;7.63;;;5.45;;
9948;SDS011;5013;51.840;8.276;2023-06-10T12:06:39;5.43;;;4.97;;
9948;SDS011;5013;51.840;8.276;2023-06-10T12:09:16;7.72;;;5.50;;
9948;SDS011;5013;51.840;8.276;2023-06-10T12:11:45;5.70;;;4.90;;
9948;SDS011;5013;51.840;8.276;2023-06-10T12:14:13;5.80;;;5.18;;
9948;SDS011;5013;51.840;8.276;2023-06-10T12:16:39;5.95;;;5.45;;
9948;SDS011;5013;51.840;8.276;2023-06-10T12:19:05;5.25;;;4.85;;
9948;SDS011;5013;51.840;8.276;2023-06-10T12:21:32;5.97;;;5.53;;
9948;SDS011;5013;51.840;8.276;2023-06-10T12:24:01;7.32;;;5.25;;
9948;SDS011;5013;51.840;8.276;2023-06-10T12:26:42;6.93;;;5.32;;
9948;SDS011;5013;51.840;8.276;2023-06-10T12:31:54;6.03;;;5.53;;
9948;SDS011;5013;51.840;8.276;2023-06-10T12:34:34;5.63;;;5.22;;
9948;SDS011;5013;51.840;8.276;2023-06-10T12:37:02;6.53;;;5.90;;
9948;SDS011;5013;51.840;8.276;2023-06-10T12:39:29;8.80;;;5.50;;
9948;SDS011;5013;51.840;8.276;2023-06-10T12:41:55;8.82;;;5.38;;
9948;SDS011;5013;51.840;8.276;2023-06-10T12:44:30;6.03;;;5.55;;
9948;SDS011;5013;51.840;8.276;2023-06-10T12:46:56;8.05;;;5.30;;
9948;SDS011;5013;51.840;8.276;2023-06-10T12:49:22;10.32;;;5.80;;
9948;SDS011;5013;51.840;8.276;2023-06-10T12:51:48;7.82;;;4.97;;
9948;SDS011;5013;51.840;8.276;2023-06-10T12:54:13;12.00;;;5.15;;
9948;SDS011;5013;51.840;8.276;2023-06-10T12:56:39;5.82;;;5.35;;
9948;SDS011;5013;51.840;8.276;2023-06-10T12:59:05;8.90;;;5.55;;
9948;SDS011;5013;51.840;8.276;2023-06-10T13:01:31;5.32;;;4.93;;
9948;SDS011;5013;51.840;8.276;2023-06-10T13:03:57;8.90;;;5.53;;
9948;SDS011;5013;51.840;8.276;2023-06-10T13:06:23;5.88;;;5.28;;
9948;SDS011;5013;51.840;8.276;2023-06-10T13:08:48;6.28;;;5.68;;
9948;SDS011;5013;51.840;8.276;2023-06-10T13:11:15;7.03;;;5.35;;
9948;SDS011;5013;51.840;8.276;2023-06-10T13:13:43;5.22;;;4.93;;
9948;SDS011;5013;51.840;8.276;2023-06-10T13:16:09;5.68;;;5.28;;
9948;SDS011;5013;51.840;8.276;2023-06-10T13:18:34;7.15;;;5.10;;
9948;SDS011;5013;51.840;8.276;2023-06-10T13:21:05;5.18;;;4.72;;
9948;SDS011;5013;51.840;8.276;2023-06-10T13:23:31;5.45;;;5.15;;
9948;SDS011;5013;51.840;8.276;2023-06-10T13:25:58;6.20;;;5.10;;
9948;SDS011;5013;51.840;8.276;2023-06-10T13:28:23;6.40;;;5.80;;
9948;SDS011;5013;51.840;8.276;2023-06-10T13:30:50;6.13;;;5.45;;
9948;SDS011;5013;51.840;8.276;2023-06-10T13:33:15;6.07;;;5.57;;
9948;SDS011;5013;51.840;8.276;2023-06-10T13:35:41;5.60;;;5.10;;
9948;SDS011;5013;51.840;8.276;2023-06-10T13:38:07;6.85;;;5.25;;
9948;SDS011;5013;51.840;8.276;2023-06-10T13:40:32;5.72;;;5.13;;
9948;SDS011;5013;51.840;8.276;2023-06-10T13:42:58;6.03;;;5.43;;
9948;SDS011;5013;51.840;8.276;2023-06-10T13:45:23;5.40;;;4.90;;
9948;SDS011;5013;51.840;8.276;2023-06-10T13:47:49;5.20;;;4.70;;
9948;SDS011;5013;51.840;8.276;2023-06-10T13:50:15;6.03;;;5.38;;
9948;SDS011;5013;51.840;8.276;2023-06-10T13:52:41;7.03;;;5.57;;
9948;SDS011;5013;51.840;8.276;2023-06-10T13:55:06;5.93;;;5.53;;
9948;SDS011;5013;51.840;8.276;2023-06-10T13:57:32;5.78;;;5.22;;
9948;SDS011;5013;51.840;8.276;2023-06-10T13:59:58;6.05;;;5.45;;
9948;SDS011;5013;51.840;8.276;2023-06-10T14:02:23;7.97;;;6.07;;
9948;SDS011;5013;51.840;8.276;2023-06-10T14:04:49;8.95;;;5.90;;
9948;SDS011;5013;51.840;8.276;2023-06-10T14:07:14;5.90;;;5.40;;
9948;SDS011;5013;51.840;8.276;2023-06-10T14:09:40;8.25;;;5.60;;
9948;SDS011;5013;51.840;8.276;2023-06-10T14:12:06;10.32;;;5.50;;
9948;SDS011;5013;51.840;8.276;2023-06-10T14:14:32;6.60;;;6.00;;
9948;SDS011;5013;51.840;8.276;2023-06-10T14:16:58;5.90;;;5.30;;
9948;SDS011;5013;51.840;8.276;2023-06-10T14:19:24;5.93;;;5.43;;
9948;SDS011;5013;51.840;8.276;2023-06-10T14:21:50;6.05;;;5.50;;
9948;SDS011;5013;51.840;8.276;2023-06-10T14:24:15;10.55;;;6.93;;
9948;SDS011;5013;51.840;8.276;2023-06-10T14:26:41;6.05;;;5.45;;
9948;SDS011;5013;51.840;8.276;2023-06-10T14:29:06;6.82;;;6.25;;
9948;SDS011;5013;51.840;8.276;2023-06-10T14:31:33;6.72;;;6.07;;
9948;SDS011;5013;51.840;8.276;2023-06-10T14:33:59;5.95;;;5.30;;
9948;SDS011;5013;51.840;8.276;2023-06-10T14:36:24;7.43;;;5.75;;
9948;SDS011;5013;51.840;8.276;2023-06-10T14:38:50;5.95;;;5.47;;
9948;SDS011;5013;51.840;8.276;2023-06-10T14:41:16;6.93;;;6.15;;
9948;SDS011;5013;51.840;8.276;2023-06-10T14:43:41;9.20;;;6.07;;
9948;SDS011;5013;51.840;8.276;2023-06-10T14:46:07;7.63;;;5.47;;
9948;SDS011;5013;51.840;8.276;2023-06-10T14:48:33;6.00;;;5.43;;
9948;SDS011;5013;51.840;8.276;2023-06-10T14:50:58;6.45;;;5.63;;
9948;SDS011;5013;51.840;8.276;2023-06-10T14:53:24;6.53;;;5.93;;
9948;SDS011;5013;51.840;8.276;2023-06-10T14:55:49;7.95;;;4.95;;
9948;SDS011;5013;51.840;8.276;2023-06-10T14:58:15;6.90;;;5.55;;
9948;SDS011;5013;51.840;8.276;2023-06-10T15:00:41;5.70;;;4.93;;
9948;SDS011;5013;51.840;8.276;2023-06-10T15:03:06;6.43;;;5.75;;
9948;SDS011;5013;51.840;8.276;2023-06-10T15:05:32;8.65;;;5.90;;
9948;SDS011;5013;51.840;8.276;2023-06-10T15:07:59;6.63;;;6.10;;
9948;SDS011;5013;51.840;8.276;2023-06-10T15:10:25;6.65;;;6.00;;
9948;SDS011;5013;51.840;8.276;2023-06-10T15:12:50;6.35;;;5.78;;
9948;SDS011;5013;51.840;8.276;2023-06-10T15:15:23;6.10;;;5.60;;
9948;SDS011;5013;51.840;8.276;2023-06-10T15:17:50;6.07;;;5.57;;
9948;SDS011;5013;51.840;8.276;2023-06-10T15:20:16;6.05;;;5.60;;
9948;SDS011;5013;51.840;8.276;2023-06-10T15:22:41;7.35;;;5.65;;
9948;SDS011;5013;51.840;8.276;2023-06-10T15:25:07;6.50;;;5.90;;
9948;SDS011;5013;51.840;8.276;2023-06-10T15:27:33;7.47;;;6.10;;
9948;SDS011;5013;51.840;8.276;2023-06-10T15:29:58;7.72;;;5.82;;
9948;SDS011;5013;51.840;8.276;2023-06-10T15:32:24;7.47;;;5.93;;
9948;SDS011;5013;51.840;8.276;2023-06-10T15:34:49;8.40;;;6.57;;
9948;SDS011;5013;51.840;8.276;2023-06-10T15:37:17;10.35;;;5.78;;
9948;SDS011;5013;51.840;8.276;2023-06-10T15:39:43;10.38;;;6.05;;